createdAt,value
2017-10-07T00:00:32.466Z,76.72
2017-10-07T00:03:06.580Z,75.49
2017-10-07T00:05:39.272Z,74.58
2017-10-07T00:08:11.199Z,75.82
2017-10-07T00:10:42.637Z,74.25
2017-10-07T00:13:13.695Z,72.96
2017-10-07T00:15:45.144Z,73.86
2017-10-07T00:18:18.698Z,73.43
2017-10-07T00:20:52.853Z,72.39
2017-10-07T00:23:23.845Z,72.25
2017-10-07T00:25:55.433Z,72.71
2017-10-07T00:28:26.782Z,71.00
2017-10-07T00:30:58.133Z,71.37
2017-10-07T00:33:29.808Z,71.98
2017-10-07T00:36:02.186Z,71.00
2017-10-07T00:38:33.632Z,72.43
2017-10-07T00:41:05.334Z,71.20
2017-10-07T00:43:37.955Z,71.56
2017-10-07T00:46:10.373Z,72.68
2017-10-07T00:48:52.046Z,74.43
2017-10-07T00:51:24.459Z,72.88
2017-10-07T00:53:56.762Z,72.68
2017-10-07T00:56:31.789Z,72.30
2017-10-07T00:59:03.989Z,72.61
2017-10-07T01:01:37.181Z,72.38
2017-10-07T01:04:08.964Z,72.52
2017-10-07T01:06:41.523Z,73.24
2017-10-07T01:09:14.206Z,75.21
2017-10-07T01:11:46.616Z,75.71
2017-10-07T01:14:17.636Z,75.41
2017-10-07T01:16:49.970Z,75.41
2017-10-07T01:19:22.025Z,74.03
2017-10-07T01:21:53.062Z,73.58
2017-10-07T01:24:24.904Z,76.17
2017-10-07T01:26:56.935Z,74.06
2017-10-07T01:29:29.915Z,73.87
2017-10-07T01:32:01.319Z,74.51
2017-10-07T01:34:55.999Z,72.81
2017-10-07T01:37:27.202Z,74.27
2017-10-07T01:40:01.187Z,74.79
2017-10-07T01:42:32.847Z,74.43
2017-10-07T01:45:04.765Z,73.01
2017-10-07T01:47:37.992Z,72.21
2017-10-07T01:50:09.319Z,72.79
2017-10-07T01:52:40.465Z,73.32
2017-10-07T01:55:12.574Z,72.94
2017-10-07T01:57:43.801Z,72.38
2017-10-07T02:00:15.768Z,74.26
2017-10-07T02:02:48.212Z,74.53
2017-10-07T02:05:20.218Z,74.38
2017-10-07T02:07:52.070Z,73.22
2017-10-07T02:10:24.229Z,72.98
2017-10-07T02:12:56.722Z,72.42
2017-10-07T02:15:28.665Z,70.90
2017-10-07T02:18:01.287Z,71.60
2017-10-07T02:20:33.863Z,73.06
2017-10-07T02:23:05.938Z,74.34
2017-10-07T02:25:37.538Z,74.62
2017-10-07T02:28:09.234Z,74.96
2017-10-07T02:30:40.554Z,76.71
2017-10-07T02:33:11.841Z,74.87
2017-10-07T02:35:42.938Z,75.15
2017-10-07T02:38:14.315Z,75.08
2017-10-07T02:40:45.562Z,76.29
2017-10-07T02:43:16.482Z,76.81
2017-10-07T02:45:48.121Z,76.19
2017-10-07T02:48:18.971Z,74.70
2017-10-07T02:50:50.254Z,77.98
2017-10-07T02:53:21.164Z,76.78
2017-10-07T02:55:52.019Z,76.03
2017-10-07T02:58:23.133Z,76.21
2017-10-07T03:00:54.071Z,76.87
2017-10-07T03:03:25.001Z,76.46
2017-10-07T03:05:56.331Z,76.34
2017-10-07T03:08:32.182Z,76.06
2017-10-07T03:11:15.785Z,74.81
2017-10-07T03:13:47.114Z,74.38
2017-10-07T03:16:18.301Z,75.03
2017-10-07T03:18:50.344Z,74.86
2017-10-07T03:21:22.166Z,74.09
2017-10-07T03:23:53.849Z,74.38
2017-10-07T03:26:28.346Z,74.51
2017-10-07T03:29:02.757Z,77.16
2017-10-07T03:31:38.699Z,74.84
2017-10-07T03:34:09.799Z,76.12
2017-10-07T03:36:42.135Z,74.92
2017-10-07T03:39:13.697Z,72.79
2017-10-07T03:41:45.757Z,72.98
2017-10-07T03:44:20.458Z,73.17
2017-10-07T03:46:52.516Z,71.73
2017-10-07T03:49:23.688Z,72.25
2017-10-07T03:51:55.716Z,71.38
2017-10-07T03:54:26.974Z,75.14
